sensor_id;sensor_type;location;lat;lon;timestamp;pressure;altitude;pressure_sealevel;temperature;humidity
9676;BME280;4876;42.656;23.292;2022-12-18T00:00:46;95061.63;;;6.96;100.00
9676;BME280;4876;42.656;23.292;2022-12-18T00:03:13;95069.22;;;6.88;100.00
9676;BME280;4876;42.656;23.292;2022-12-18T00:05:47;95056.50;;;6.66;100.00
9676;BME280;4876;42.656;23.292;2022-12-18T00:08:14;95063.31;;;6.52;100.00
9676;BME280;4876;42.656;23.292;2022-12-18T00:10:41;95051.84;;;6.53;100.00
9676;BME280;4876;42.656;23.292;2022-12-18T00:13:08;95070.09;;;6.63;100.00
9676;BME280;4876;42.656;23.292;2022-12-18T00:15:35;95073.28;;;6.44;100.00
9676;BME280;4876;42.656;23.292;2022-12-18T00:18:02;95076.69;;;6.40;100.00
9676;BME280;4876;42.656;23.292;2022-12-18T00:20:30;95083.50;;;6.31;100.00
9676;BME280;4876;42.656;23.292;2022-12-18T00:22:58;95090.00;;;6.48;100.00
9676;BME280;4876;42.656;23.292;2022-12-18T00:25:25;95092.38;;;6.35;100.00
9676;BME280;4876;42.656;23.292;2022-12-18T00:27:52;95097.59;;;6.25;100.00
9676;BME280;4876;42.656;23.292;2022-12-18T00:30:18;95094.22;;;6.34;100.00
9676;BME280;4876;42.656;23.292;2022-12-18T00:32:45;95098.91;;;6.27;100.00
9676;BME280;4876;42.656;23.292;2022-12-18T00:35:12;95095.53;;;6.22;100.00
9676;BME280;4876;42.656;23.292;2022-12-18T00:37:39;95096.56;;;6.26;100.00
9676;BME280;4876;42.656;23.292;2022-12-18T00:40:09;95098.94;;;6.22;100.00
9676;BME280;4876;42.656;23.292;2022-12-18T00:42:36;95111.44;;;6.30;100.00
9676;BME280;4876;42.656;23.292;2022-12-18T00:45:16;95111.97;;;6.27;100.00
9676;BME280;4876;42.656;23.292;2022-12-18T00:47:43;95104.16;;;6.22;100.00
9676;BME280;4876;42.656;23.292;2022-12-18T00:50:10;95106.50;;;6.13;100.00
9676;BME280;4876;42.656;23.292;2022-12-18T00:52:39;95121.88;;;6.20;100.00
9676;BME280;4876;42.656;23.292;2022-12-18T00:55:08;95111.97;;;6.12;100.00
9676;BME280;4876;42.656;23.292;2022-12-18T00:57:35;95113.56;;;5.98;100.00
9676;BME280;4876;42.656;23.292;2022-12-18T01:00:03;95115.13;;;6.04;100.00
9676;BME280;4876;42.656;23.292;2022-12-18T01:02:30;95120.34;;;6.09;100.00
9676;BME280;4876;42.656;23.292;2022-12-18T01:04:57;95114.06;;;5.94;100.00
9676;BME280;4876;42.656;23.292;2022-12-18T01:07:24;95117.47;;;5.95;100.00
9676;BME280;4876;42.656;23.292;2022-12-18T01:09:50;95122.66;;;5.85;100.00
9676;BME280;4876;42.656;23.292;2022-12-18T01:12:19;95125.78;;;5.72;100.00
9676;BME280;4876;42.656;23.292;2022-12-18T01:14:46;95131.25;;;5.80;100.00
9676;BME280;4876;42.656;23.292;2022-12-18T01:17:12;95131.78;;;5.72;100.00
9676;BME280;4876;42.656;23.292;2022-12-18T01:19:40;95135.97;;;5.88;100.00
9676;BME280;4876;42.656;23.292;2022-12-18T01:22:07;95138.56;;;5.83;100.00
9676;BME280;4876;42.656;23.292;2022-12-18T01:24:36;95130.75;;;5.78;100.00
9676;BME280;4876;42.656;23.292;2022-12-18T01:27:03;95142.47;;;5.60;100.00
9676;BME280;4876;42.656;23.292;2022-12-18T01:29:31;95141.66;;;5.55;100.00
9676;BME280;4876;42.656;23.292;2022-12-18T01:31:58;95132.22;;;5.44;100.00
9676;BME280;4876;42.656;23.292;2022-12-18T01:34:25;95145.03;;;5.50;100.00
9676;BME280;4876;42.656;23.292;2022-12-18T01:36:51;95151.53;;;5.43;100.00
9676;BME280;4876;42.656;23.292;2022-12-18T01:39:19;95142.16;;;5.47;100.00
9676;BME280;4876;42.656;23.292;2022-12-18T01:41:45;95145.56;;;5.47;100.00
9676;BME280;4876;42.656;23.292;2022-12-18T01:44:58;95154.41;;;5.46;100.00
9676;BME280;4876;42.656;23.292;2022-12-18T01:47:28;95158.78;;;5.25;100.00
9676;BME280;4876;42.656;23.292;2022-12-18T01:49:58;95159.28;;;5.17;100.00
9676;BME280;4876;42.656;23.292;2022-12-18T01:52:28;95161.34;;;5.15;100.00
9676;BME280;4876;42.656;23.292;2022-12-18T01:54:56;95147.25;;;5.11;100.00
9676;BME280;4876;42.656;23.292;2022-12-18T01:57:24;95161.44;;;5.35;100.00
9676;BME280;4876;42.656;23.292;2022-12-18T01:59:52;95150.41;;;5.18;100.00
9676;BME280;4876;42.656;23.292;2022-12-18T02:02:22;95153.28;;;5.27;100.00
9676;BME280;4876;42.656;23.292;2022-12-18T02:04:49;95160.63;;;5.30;100.00
9676;BME280;4876;42.656;23.292;2022-12-18T02:07:20;95160.81;;;5.13;100.00
9676;BME280;4876;42.656;23.292;2022-12-18T02:09:54;95162.38;;;5.14;100.00
9676;BME280;4876;42.656;23.292;2022-12-18T02:12:24;95170.22;;;5.19;100.00
9676;BME280;4876;42.656;23.292;2022-12-18T02:14:55;95163.41;;;5.13;100.00
9676;BME280;4876;42.656;23.292;2022-12-18T02:17:31;95169.69;;;5.12;100.00
9676;BME280;4876;42.656;23.292;2022-12-18T02:20:07;95174.88;;;5.07;100.00
9676;BME280;4876;42.656;23.292;2022-12-18T02:22:47;95179.81;;;5.08;100.00
9676;BME280;4876;42.656;23.292;2022-12-18T02:25:27;95181.06;;;4.96;100.00
9676;BME280;4876;42.656;23.292;2022-12-18T02:28:04;95182.34;;;4.93;100.00
9676;BME280;4876;42.656;23.292;2022-12-18T02:30:33;95178.50;;;5.06;100.00
9676;BME280;4876;42.656;23.292;2022-12-18T02:33:04;95184.94;;;4.88;100.00
9676;BME280;4876;42.656;23.292;2022-12-18T02:35:33;95183.84;;;4.84;100.00
9676;BME280;4876;42.656;23.292;2022-12-18T02:38:01;95188.28;;;4.78;100.00
9676;BME280;4876;42.656;23.292;2022-12-18T02:40:30;95184.59;;;4.74;100.00
9676;BME280;4876;42.656;23.292;2022-12-18T02:43:06;95184.53;;;4.64;100.00
9676;BME280;4876;42.656;23.292;2022-12-18T02:45:33;95194.00;;;4.80;100.00
9676;BME280;4876;42.656;23.292;2022-12-18T02:48:01;95190.06;;;4.78;100.00
9676;BME280;4876;42.656;23.292;2022-12-18T02:50:34;95198.94;;;4.77;100.00
9676;BME280;4876;42.656;23.292;2022-12-18T02:53:10;95194.50;;;4.77;100.00
9676;BME280;4876;42.656;23.292;2022-12-18T02:55:50;95191.38;;;4.75;100.00
9676;BME280;4876;42.656;23.292;2022-12-18T02:58:27;95193.47;;;4.73;100.00
9676;BME280;4876;42.656;23.292;2022-12-18T03:00:59;95191.38;;;4.75;100.00
9676;BME280;4876;42.656;23.292;2022-12-18T03:03:30;95196.09;;;4.78;100.00
9676;BME280;4876;42.656;23.292;2022-12-18T03:06:03;95199.66;;;4.67;100.00
9676;BME280;4876;42.656;23.292;2022-12-18T03:08:36;95185.47;;;4.48;100.00
9676;BME280;4876;42.656;23.292;2022-12-18T03:11:09;95213.09;;;4.49;100.00
9676;BME280;4876;42.656;23.292;2022-12-18T03:13:43;95211.09;;;4.61;100.00
9676;BME280;4876;42.656;23.292;2022-12-18T03:16:14;95204.88;;;4.67;100.00
9676;BME280;4876;42.656;23.292;2022-12-18T03:18:46;95215.31;;;4.67;100.00
9676;BME280;4876;42.656;23.292;2022-12-18T03:21:15;95212.13;;;4.60;100.00
9676;BME280;4876;42.656;23.292;2022-12-18T03:23:48;95215.56;;;4.71;100.00
9676;BME280;4876;42.656;23.292;2022-12-18T03:26:19;95185.53;;;4.58;100.00
9676;BME280;4876;42.656;23.292;2022-12-18T03:28:51;95208.78;;;4.70;100.00
9676;BME280;4876;42.656;23.292;2022-12-18T03:31:20;95199.97;;;4.76;100.00
9676;BME280;4876;42.656;23.292;2022-12-18T03:33:53;95221.63;;;4.81;99.22
9676;BME280;4876;42.656;23.292;2022-12-18T03:36:20;95226.59;;;4.83;99.39
9676;BME280;4876;42.656;23.292;2022-12-18T03:38:47;95236.22;;;4.82;98.76
9676;BME280;4876;42.656;23.292;2022-12-18T03:41:18;95238.22;;;4.70;98.89
9676;BME280;4876;42.656;23.292;2022-12-18T03:43:51;95242.06;;;4.57;98.95
9676;BME280;4876;42.656;23.292;2022-12-18T03:46:26;95241.88;;;4.69;99.14
9676;BME280;4876;42.656;23.292;2022-12-18T03:48:59;95250.13;;;4.56;98.89
9676;BME280;4876;42.656;23.292;2022-12-18T03:51:33;95257.03;;;4.72;99.37
9676;BME280;4876;42.656;23.292;2022-12-18T03:54:05;95230.22;;;4.45;98.99
9676;BME280;4876;42.656;23.292;2022-12-18T03:56:37;95230.44;;;4.38;99.22
9676;BME280;4876;42.656;23.292;2022-12-18T03:59:07;95257.84;;;4.46;99.96
9676;BME280;4876;42.656;23.292;2022-12-18T04:01:39;95264.09;;;4.45;100.00
9676;BME280;4876;42.656;23.292;2022-12-18T04:04:08;95261.44;;;4.40;99.11
9676;BME280;4876;42.656;23.292;2022-12-18T04:06:37;95268.59;;;4.54;97.86
9676;BME280;4876;42.656;23.292;2022-12-18T04:09:05;95272.63;;;4.40;98.09
9676;BME280;4876;42.656;23.292;2022-12-18T04:11:32;95275.53;;;4.44;98.98
9676;BME280;4876;42.656;23.292;2022-12-18T04:13:59;95282.81;;;4.42;96.83
9676;BME280;4876;42.656;23.292;2022-12-18T04:16:27;95282.31;;;4.45;96.90
9676;BME280;4876;42.656;23.292;2022-12-18T04:18:54;95287.53;;;4.45;96.93
9676;BME280;4876;42.656;23.292;2022-12-18T04:21:21;95282.47;;;4.33;97.36
9676;BME280;4876;42.656;23.292;2022-12-18T04:23:48;95299.47;;;4.41;96.15
9676;BME280;4876;42.656;23.292;2022-12-18T04:26:15;95295.91;;;4.52;96.02
9676;BME280;4876;42.656;23.292;2022-12-18T04:28:41;95296.91;;;4.46;95.62
9676;BME280;4876;42.656;23.292;2022-12-18T04:31:09;95295.84;;;4.42;95.69
9676;BME280;4876;42.656;23.292;2022-12-18T04:33:37;95306.69;;;4.33;94.73
9676;BME280;4876;42.656;23.292;2022-12-18T04:36:04;95308.34;;;4.45;94.64
9676;BME280;4876;42.656;23.292;2022-12-18T04:38:31;95307.81;;;4.43;94.13
9676;BME280;4876;42.656;23.292;2022-12-18T04:40:58;95316.16;;;4.45;92.93
9676;BME280;4876;42.656;23.292;2022-12-18T04:43:25;95326.53;;;4.40;92.26
9676;BME280;4876;42.656;23.292;2022-12-18T04:45:52;95321.72;;;4.26;91.34
9676;BME280;4876;42.656;23.292;2022-12-18T04:48:20;95281.63;;;3.73;91.00
9676;BME280;4876;42.656;23.292;2022-12-18T04:50:48;95327.25;;;4.08;92.27
9676;BME280;4876;42.656;23.292;2022-12-18T04:53:15;95322.16;;;4.18;91.98
9676;BME280;4876;42.656;23.292;2022-12-18T04:55:42;95334.22;;;4.24;92.47
9676;BME280;4876;42.656;23.292;2022-12-18T04:58:08;95346.84;;;4.38;92.36
9676;BME280;4876;42.656;23.292;2022-12-18T05:00:35;95346.31;;;4.36;90.73
9676;BME280;4876;42.656;23.292;2022-12-18T05:03:02;95351.94;;;4.27;91.54
9676;BME280;4876;42.656;23.292;2022-12-18T05:05:29;95350.66;;;4.30;91.76
9676;BME280;4876;42.656;23.292;2022-12-18T05:07:57;95353.09;;;4.37;92.13
9676;BME280;4876;42.656;23.292;2022-12-18T05:10:24;95355.94;;;4.35;90.99
9676;BME280;4876;42.656;23.292;2022-12-18T05:12:51;95351.72;;;4.29;91.16
9676;BME280;4876;42.656;23.292;2022-12-18T05:15:28;95358.94;;;4.27;91.89
9676;BME280;4876;42.656;23.292;2022-12-18T05:17:56;95354.00;;;4.25;91.87
9676;BME280;4876;42.656;23.292;2022-12-18T05:20:23;95359.19;;;4.25;92.30
9676;BME280;4876;42.656;23.292;2022-12-18T05:22:50;95359.16;;;4.20;92.96
9676;BME280;4876;42.656;23.292;2022-12-18T05:25:21;95361.50;;;4.22;92.00
9676;BME280;4876;42.656;23.292;2022-12-18T05:27:48;95367.03;;;4.25;91.97
9676;BME280;4876;42.656;23.292;2022-12-18T05:30:15;95368.78;;;4.20;92.14
9676;BME280;4876;42.656;23.292;2022-12-18T05:32:42;95378.06;;;4.11;92.40
9676;BME280;4876;42.656;23.292;2022-12-18T05:35:10;95380.78;;;3.99;92.66
9676;BME280;4876;42.656;23.292;2022-12-18T05:37:37;95383.44;;;4.04;93.44
9676;BME280;4876;42.656;23.292;2022-12-18T05:40:05;95395.19;;;4.07;93.32
9676;BME280;4876;42.656;23.292;2022-12-18T05:42:33;95398.69;;;4.17;91.20
9676;BME280;4876;42.656;23.292;2022-12-18T05:45:00;95402.97;;;4.07;92.17
9676;BME280;4876;42.656;23.292;2022-12-18T05:47:27;95400.03;;;3.98;91.18
9676;BME280;4876;42.656;23.292;2022-12-18T05:49:54;95405.09;;;3.88;92.30
9676;BME280;4876;42.656;23.292;2022-12-18T05:52:21;95403.19;;;3.83;92.87
9676;BME280;4876;42.656;23.292;2022-12-18T05:54:48;95407.66;;;3.66;93.17
9676;BME280;4876;42.656;23.292;2022-12-18T05:57:15;95406.47;;;3.73;92.58
9676;BME280;4876;42.656;23.292;2022-12-18T05:59:43;95410.88;;;3.73;91.79
9676;BME280;4876;42.656;23.292;2022-12-18T06:02:10;95415.34;;;3.77;91.97
9676;BME280;4876;42.656;23.292;2022-12-18T06:04:37;95414.72;;;3.87;92.13
9676;BME280;4876;42.656;23.292;2022-12-18T06:07:04;95415.53;;;3.71;93.70
9676;BME280;4876;42.656;23.292;2022-12-18T06:09:30;95423.81;;;3.68;94.53
9676;BME280;4876;42.656;23.292;2022-12-18T06:11:58;95426.44;;;3.68;93.82
9676;BME280;4876;42.656;23.292;2022-12-18T06:14:25;95395.44;;;3.66;93.55
9676;BME280;4876;42.656;23.292;2022-12-18T06:16:53;95423.38;;;3.93;91.65
9676;BME280;4876;42.656;23.292;2022-12-18T06:19:20;95431.38;;;4.08;91.07
9676;BME280;4876;42.656;23.292;2022-12-18T06:21:47;95436.75;;;4.01;90.89
9676;BME280;4876;42.656;23.292;2022-12-18T06:24:15;95434.53;;;4.10;90.01
9676;BME280;4876;42.656;23.292;2022-12-18T06:26:41;95436.56;;;4.08;89.68
9676;BME280;4876;42.656;23.292;2022-12-18T06:29:08;95439.25;;;4.13;88.71
9676;BME280;4876;42.656;23.292;2022-12-18T06:31:35;95444.97;;;4.15;88.24
9676;BME280;4876;42.656;23.292;2022-12-18T06:34:04;95447.00;;;4.30;87.68
9676;BME280;4876;42.656;23.292;2022-12-18T06:36:30;95455.88;;;4.34;86.67
9676;BME280;4876;42.656;23.292;2022-12-18T06:38:57;95456.84;;;4.28;86.80
9676;BME280;4876;42.656;23.292;2022-12-18T06:41:24;95459.41;;;4.23;86.95
9676;BME280;4876;42.656;23.292;2022-12-18T06:43:54;95460.38;;;4.17;86.42
9676;BME280;4876;42.656;23.292;2022-12-18T06:46:21;95466.56;;;4.11;87.66
9676;BME280;4876;42.656;23.292;2022-12-18T06:48:48;95462.66;;;4.13;88.42
9676;BME280;4876;42.656;23.292;2022-12-18T06:51:21;95469.84;;;4.23;87.92
9676;BME280;4876;42.656;23.292;2022-12-18T06:53:49;95474.72;;;4.19;86.74
9676;BME280;4876;42.656;23.292;2022-12-18T06:56:16;95484.81;;;4.16;85.32
9676;BME280;4876;42.656;23.292;2022-12-18T06:58:43;95478.28;;;4.13;86.10
9676;BME280;4876;42.656;23.292;2022-12-18T07:01:11;95480.47;;;4.21;86.20
9676;BME280;4876;42.656;23.292;2022-12-18T07:03:38;95483.91;;;4.05;84.93
9676;BME280;4876;42.656;23.292;2022-12-18T07:06:06;95481.78;;;4.02;84.48
9676;BME280;4876;42.656;23.292;2022-12-18T07:08:34;95490.63;;;4.01;86.13
9676;BME280;4876;42.656;23.292;2022-12-18T07:11:03;95496.38;;;4.03;85.72
9676;BME280;4876;42.656;23.292;2022-12-18T07:13:30;95496.19;;;4.10;85.75
9676;BME280;4876;42.656;23.292;2022-12-18T07:16:04;95497.19;;;4.25;85.34
9676;BME280;4876;42.656;23.292;2022-12-18T07:18:31;95487.66;;;4.14;84.44
9676;BME280;4876;42.656;23.292;2022-12-18T07:20:58;95496.44;;;4.08;84.03
9676;BME280;4876;42.656;23.292;2022-12-18T07:23:24;95496.38;;;4.03;84.84
9676;BME280;4876;42.656;23.292;2022-12-18T07:25:52;95500.78;;;4.02;83.89
9676;BME280;4876;42.656;23.292;2022-12-18T07:28:19;95499.38;;;4.12;83.75
9676;BME280;4876;42.656;23.292;2022-12-18T07:30:46;95498.00;;;4.09;82.82
9676;BME280;4876;42.656;23.292;2022-12-18T07:33:13;95505.19;;;4.02;84.06
9676;BME280;4876;42.656;23.292;2022-12-18T07:35:39;95512.53;;;4.05;83.55
9676;BME280;4876;42.656;23.292;2022-12-18T07:38:06;95506.84;;;4.08;83.93
9676;BME280;4876;42.656;23.292;2022-12-18T07:40:33;95515.69;;;4.07;82.14
9676;BME280;4876;42.656;23.292;2022-12-18T07:43:01;95515.94;;;4.05;83.12
9676;BME280;4876;42.656;23.292;2022-12-18T07:45:28;95512.94;;;3.97;84.03
9676;BME280;4876;42.656;23.292;2022-12-18T07:47:55;95500.50;;;3.99;84.32
9676;BME280;4876;42.656;23.292;2022-12-18T07:50:21;95520.63;;;4.25;82.76
9676;BME280;4876;42.656;23.292;2022-12-18T07:52:49;95526.44;;;4.11;83.14
9676;BME280;4876;42.656;23.292;2022-12-18T07:55:16;95529.88;;;4.16;83.30
9676;BME280;4876;42.656;23.292;2022-12-18T07:57:43;95534.69;;;4.24;83.41
9676;BME280;4876;42.656;23.292;2022-12-18T08:00:12;95533.09;;;4.23;83.92
9676;BME280;4876;42.656;23.292;2022-12-18T08:02:39;95537.53;;;4.23;82.99
9676;BME280;4876;42.656;23.292;2022-12-18T08:05:06;95541.31;;;4.15;83.74
9676;BME280;4876;42.656;23.292;2022-12-18T08:07:33;95536.44;;;4.02;83.61
9676;BME280;4876;42.656;23.292;2022-12-18T08:10:00;95547.00;;;4.12;83.49
9676;BME280;4876;42.656;23.292;2022-12-18T08:12:48;95514.38;;;3.71;82.60
9676;BME280;4876;42.656;23.292;2022-12-18T08:15:34;95535.19;;;3.88;82.85
9676;BME280;4876;42.656;23.292;2022-12-18T08:18:01;95543.06;;;3.93;83.40
9676;BME280;4876;42.656;23.292;2022-12-18T08:20:28;95559.00;;;3.96;83.30
9676;BME280;4876;42.656;23.292;2022-12-18T08:22:54;95566.72;;;4.08;83.79
9676;BME280;4876;42.656;23.292;2022-12-18T08:25:23;95573.28;;;4.11;83.18
9676;BME280;4876;42.656;23.292;2022-12-18T08:27:50;95569.25;;;4.03;83.40
9676;BME280;4876;42.656;23.292;2022-12-18T08:30:17;95572.91;;;3.85;84.44
9676;BME280;4876;42.656;23.292;2022-12-18T08:32:45;95575.63;;;3.95;84.43
9676;BME280;4876;42.656;23.292;2022-12-18T08:35:12;95570.28;;;4.02;84.59
9676;BME280;4876;42.656;23.292;2022-12-18T08:37:38;95579.50;;;3.93;84.65
9676;BME280;4876;42.656;23.292;2022-12-18T08:40:07;95575.38;;;3.97;85.09
9676;BME280;4876;42.656;23.292;2022-12-18T08:42:34;95579.03;;;3.96;85.08
9676;BME280;4876;42.656;23.292;2022-12-18T08:45:18;95576.03;;;3.70;86.29
9676;BME280;4876;42.656;23.292;2022-12-18T08:47:46;95591.66;;;3.87;86.40
9676;BME280;4876;42.656;23.292;2022-12-18T08:50:12;95586.91;;;3.67;86.40
9676;BME280;4876;42.656;23.292;2022-12-18T08:52:40;95586.44;;;3.70;87.21
9676;BME280;4876;42.656;23.292;2022-12-18T08:55:08;95583.22;;;3.80;87.11
9676;BME280;4876;42.656;23.292;2022-12-18T08:57:35;95588.81;;;3.89;85.60
9676;BME280;4876;42.656;23.292;2022-12-18T09:00:02;95593.06;;;3.95;85.13
9676;BME280;4876;42.656;23.292;2022-12-18T09:02:29;95584.53;;;3.66;87.22
9676;BME280;4876;42.656;23.292;2022-12-18T09:04:57;95586.75;;;3.74;86.44
9676;BME280;4876;42.656;23.292;2022-12-18T09:07:24;95586.44;;;3.87;85.79
9676;BME280;4876;42.656;23.292;2022-12-18T09:09:51;95582.19;;;3.81;85.59
9676;BME280;4876;42.656;23.292;2022-12-18T09:12:18;95587.06;;;3.77;86.12
9676;BME280;4876;42.656;23.292;2022-12-18T09:14:45;95578.47;;;3.77;85.30
9676;BME280;4876;42.656;23.292;2022-12-18T09:17:11;95581.50;;;3.86;85.18
9676;BME280;4876;42.656;23.292;2022-12-18T09:19:38;95593.19;;;3.71;86.21
9676;BME280;4876;42.656;23.292;2022-12-18T09:22:10;95588.94;;;3.65;86.25
9676;BME280;4876;42.656;23.292;2022-12-18T09:24:36;95578.53;;;3.65;86.36
9676;BME280;4876;42.656;23.292;2022-12-18T09:27:03;95573.50;;;3.75;85.52
9676;BME280;4876;42.656;23.292;2022-12-18T09:29:30;95586.75;;;3.91;84.86
9676;BME280;4876;42.656;23.292;2022-12-18T09:31:57;95572.16;;;3.90;85.48
9676;BME280;4876;42.656;23.292;2022-12-18T09:34:24;95584.88;;;3.86;84.68
9676;BME280;4876;42.656;23.292;2022-12-18T09:36:51;95557.50;;;3.67;84.87
9676;BME280;4876;42.656;23.292;2022-12-18T09:39:19;95587.06;;;3.94;84.59
9676;BME280;4876;42.656;23.292;2022-12-18T09:41:48;95589.28;;;4.02;83.47
9676;BME280;4876;42.656;23.292;2022-12-18T09:44:22;95588.41;;;4.14;84.26
9676;BME280;4876;42.656;23.292;2022-12-18T09:46:54;95588.72;;;4.17;83.05
9676;BME280;4876;42.656;23.292;2022-12-18T09:49:26;95588.06;;;4.27;82.03
9676;BME280;4876;42.656;23.292;2022-12-18T09:51:57;95583.19;;;4.30;82.46
9676;BME280;4876;42.656;23.292;2022-12-18T09:54:33;95581.66;;;4.51;82.20
9676;BME280;4876;42.656;23.292;2022-12-18T09:57:02;95592.38;;;4.55;81.90
9676;BME280;4876;42.656;23.292;2022-12-18T09:59:33;95560.75;;;4.46;80.35
9676;BME280;4876;42.656;23.292;2022-12-18T10:02:15;95581.63;;;4.68;79.93
9676;BME280;4876;42.656;23.292;2022-12-18T10:04:42;95578.16;;;4.63;78.14
9676;BME280;4876;42.656;23.292;2022-12-18T10:07:13;95578.94;;;4.63;78.85
9676;BME280;4876;42.656;23.292;2022-12-18T10:09:51;95577.38;;;4.62;79.34
9676;BME280;4876;42.656;23.292;2022-12-18T10:12:24;95582.63;;;4.28;79.31
9676;BME280;4876;42.656;23.292;2022-12-18T10:14:59;95584.94;;;4.08;79.43
9676;BME280;4876;42.656;23.292;2022-12-18T10:17:35;95586.13;;;4.17;79.03
9676;BME280;4876;42.656;23.292;2022-12-18T10:20:12;95576.25;;;4.19;78.03
9676;BME280;4876;42.656;23.292;2022-12-18T10:22:51;95589.66;;;4.28;78.33
9676;BME280;4876;42.656;23.292;2022-12-18T10:25:25;95590.38;;;4.23;78.06
9676;BME280;4876;42.656;23.292;2022-12-18T10:27:57;95589.44;;;4.29;78.04
9676;BME280;4876;42.656;23.292;2022-12-18T10:30:27;95595.03;;;4.21;78.89
9676;BME280;4876;42.656;23.292;2022-12-18T10:32:53;95532.25;;;3.84;78.21
9676;BME280;4876;42.656;23.292;2022-12-18T10:35:23;95596.75;;;4.32;77.40
9676;BME280;4876;42.656;23.292;2022-12-18T10:38:03;95590.44;;;4.28;76.41
9676;BME280;4876;42.656;23.292;2022-12-18T10:40:32;95592.09;;;4.35;76.14
9676;BME280;4876;42.656;23.292;2022-12-18T10:43:09;95591.28;;;4.51;75.26
9676;BME280;4876;42.656;23.292;2022-12-18T10:45:37;95584.00;;;4.53;73.68
9676;BME280;4876;42.656;23.292;2022-12-18T10:48:05;95590.56;;;4.17;73.41
9676;BME280;4876;42.656;23.292;2022-12-18T10:50:47;95576.97;;;4.15;75.18
9676;BME280;4876;42.656;23.292;2022-12-18T10:53:19;95590.56;;;4.17;74.33
9676;BME280;4876;42.656;23.292;2022-12-18T10:55:48;95589.59;;;4.23;74.37
9676;BME280;4876;42.656;23.292;2022-12-18T10:58:22;95586.00;;;4.46;74.12
9676;BME280;4876;42.656;23.292;2022-12-18T11:01:03;95585.09;;;4.35;73.55
9676;BME280;4876;42.656;23.292;2022-12-18T11:03:32;95562.28;;;4.25;72.56
9676;BME280;4876;42.656;23.292;2022-12-18T11:06:07;95591.13;;;4.41;72.15
9676;BME280;4876;42.656;23.292;2022-12-18T11:08:34;95587.28;;;4.43;71.79
9676;BME280;4876;42.656;23.292;2022-12-18T11:11:06;95587.53;;;4.42;71.28
9676;BME280;4876;42.656;23.292;2022-12-18T11:13:33;95590.06;;;4.37;71.22
9676;BME280;4876;42.656;23.292;2022-12-18T11:16:00;95597.16;;;4.41;72.40
9676;BME280;4876;42.656;23.292;2022-12-18T11:18:29;95591.28;;;4.51;72.12
9676;BME280;4876;42.656;23.292;2022-12-18T11:20:58;95589.53;;;4.56;70.77
9676;BME280;4876;42.656;23.292;2022-12-18T11:23:26;95599.63;;;4.53;71.46
9676;BME280;4876;42.656;23.292;2022-12-18T11:25:56;95599.41;;;4.54;70.61
9676;BME280;4876;42.656;23.292;2022-12-18T11:28:29;95595.69;;;4.67;70.83
9676;BME280;4876;42.656;23.292;2022-12-18T11:31:20;95584.06;;;4.58;68.81
9676;BME280;4876;42.656;23.292;2022-12-18T11:33:53;95588.22;;;4.54;69.18
9676;BME280;4876;42.656;23.292;2022-12-18T11:36:21;95582.94;;;4.49;68.60
9676;BME280;4876;42.656;23.292;2022-12-18T11:38:52;95586.41;;;4.38;68.45
9676;BME280;4876;42.656;23.292;2022-12-18T11:41:24;95598.56;;;4.49;68.12
9676;BME280;4876;42.656;23.292;2022-12-18T11:44:19;95605.94;;;4.57;68.16
9676;BME280;4876;42.656;23.292;2022-12-18T11:46:52;95605.16;;;4.56;68.07
9676;BME280;4876;42.656;23.292;2022-12-18T11:49:26;95598.22;;;4.62;68.03
9676;BME280;4876;42.656;23.292;2022-12-18T11:51:58;95595.97;;;4.71;67.76
9676;BME280;4876;42.656;23.292;2022-12-18T11:54:26;95598.47;;;4.44;68.08
9676;BME280;4876;42.656;23.292;2022-12-18T11:56:56;95598.94;;;4.41;68.38
9676;BME280;4876;42.656;23.292;2022-12-18T11:59:32;95572.16;;;4.23;69.71
9676;BME280;4876;42.656;23.292;2022-12-18T12:02:20;95583.28;;;4.36;69.03
9676;BME280;4876;42.656;23.292;2022-12-18T12:05:09;95588.47;;;4.36;69.47
9676;BME280;4876;42.656;23.292;2022-12-18T12:07:46;95591.63;;;4.38;69.28
9676;BME280;4876;42.656;23.292;2022-12-18T12:10:28;95595.66;;;4.28;69.53
9676;BME280;4876;42.656;23.292;2022-12-18T12:13:10;95590.81;;;4.54;69.38
9676;BME280;4876;42.656;23.292;2022-12-18T12:15:47;95586.78;;;4.46;69.54
9676;BME280;4876;42.656;23.292;2022-12-18T12:18:25;95590.53;;;4.72;69.06
9676;BME280;4876;42.656;23.292;2022-12-18T12:21:01;95586.38;;;4.54;68.92
9676;BME280;4876;42.656;23.292;2022-12-18T12:23:36;95583.00;;;4.54;69.44
9676;BME280;4876;42.656;23.292;2022-12-18T12:26:07;95589.28;;;4.58;69.61
9676;BME280;4876;42.656;23.292;2022-12-18T12:29:00;95594.03;;;4.61;69.64
9676;BME280;4876;42.656;23.292;2022-12-18T12:31:48;95590.94;;;4.64;68.95
9676;BME280;4876;42.656;23.292;2022-12-18T12:34:26;95577.38;;;4.62;69.54
9676;BME280;4876;42.656;23.292;2022-12-18T12:37:07;95601.00;;;4.77;68.80
9676;BME280;4876;42.656;23.292;2022-12-18T12:39:42;95598.22;;;4.62;69.53
9676;BME280;4876;42.656;23.292;2022-12-18T12:42:18;95596.03;;;4.54;69.59
9676;BME280;4876;42.656;23.292;2022-12-18T12:45:02;95533.75;;;3.97;70.40
9676;BME280;4876;42.656;23.292;2022-12-18T12:47:36;95597.44;;;4.45;71.31
9676;BME280;4876;42.656;23.292;2022-12-18T12:50:13;95498.28;;;3.91;71.35
9676;BME280;4876;42.656;23.292;2022-12-18T12:52:43;95603.88;;;4.59;70.34
9676;BME280;4876;42.656;23.292;2022-12-18T12:55:14;95611.00;;;4.64;70.79
9676;BME280;4876;42.656;23.292;2022-12-18T12:57:46;95601.19;;;4.71;70.73
9676;BME280;4876;42.656;23.292;2022-12-18T13:00:17;95602.38;;;4.63;71.66
9676;BME280;4876;42.656;23.292;2022-12-18T13:02:51;95611.16;;;4.57;71.91
9676;BME280;4876;42.656;23.292;2022-12-18T13:05:23;95608.72;;;4.67;72.06
9676;BME280;4876;42.656;23.292;2022-12-18T13:08:00;95610.44;;;4.62;71.94
9676;BME280;4876;42.656;23.292;2022-12-18T13:10:33;95612.28;;;4.61;72.12
9676;BME280;4876;42.656;23.292;2022-12-18T13:13:03;95623.72;;;4.60;72.71
9676;BME280;4876;42.656;23.292;2022-12-18T13:15:33;95620.56;;;4.58;73.06
9676;BME280;4876;42.656;23.292;2022-12-18T13:18:12;95631.03;;;4.63;72.58
9676;BME280;4876;42.656;23.292;2022-12-18T13:20:42;95624.69;;;4.54;73.32
9676;BME280;4876;42.656;23.292;2022-12-18T13:23:28;95635.28;;;4.69;72.73
9676;BME280;4876;42.656;23.292;2022-12-18T13:25:56;95632.75;;;4.74;72.01
9676;BME280;4876;42.656;23.292;2022-12-18T13:28:50;95633.41;;;4.65;72.17
9676;BME280;4876;42.656;23.292;2022-12-18T13:34:29;95641.38;;;4.58;72.53
9676;BME280;4876;42.656;23.292;2022-12-18T13:37:42;95648.88;;;4.71;71.94
9676;BME280;4876;42.656;23.292;2022-12-18T13:40:53;95633.75;;;4.51;71.41